Time;durP1;ratioP1;P1;durP2;ratioP2;P2;SDS_P1;SDS_P2;PMS_P1;PMS_P2;Temp;Humidity;BMP_temperature;BMP_pressure;BME280_temperature;BME280_humidity;BME280_pressure;Samples;Min_cycle;Max_cycle;Signal;HPM_P1;HPM_P2
2023/05/27 00:01:58;;;;;;;9.63;3.45;;;;;;;13.01;49.14;99230.88;5032976;28;20021;-70
2023/05/27 00:04:23;;;;;;;10.75;3.63;;;;;;;12.98;48.79;99231.47;5048312;28;20021;-70
2023/05/27 00:06:48;;;;;;;9.07;3.72;;;;;;;12.93;49.21;99235.09;5047502;28;20029;-70
2023/05/27 00:09:14;;;;;;;9.02;3.83;;;;;;;12.89;49.09;99235.97;5050508;28;20029;-69
2023/05/27 00:11:40;;;;;;;8.07;4.60;;;;;;;12.85;49.28;99235.75;5046366;28;20029;-70
2023/05/27 00:14:05;;;;;;;8.43;5.13;;;;;;;12.84;49.42;99239.59;5032137;28;20578;-71
2023/05/27 00:16:31;;;;;;;12.40;5.03;;;;;;;12.78;49.55;99238.00;5046380;28;20033;-70
2023/05/27 00:18:57;;;;;;;8.07;3.90;;;;;;;12.73;49.69;99240.81;5050626;28;20025;-70
2023/05/27 00:21:22;;;;;;;11.38;4.47;;;;;;;12.69;49.85;99239.75;5051314;28;20040;-71
2023/05/27 00:23:51;;;;;;;9.45;3.92;;;;;;;12.62;49.81;99240.09;5052089;28;20025;-70
2023/05/27 00:26:17;;;;;;;10.73;4.13;;;;;;;12.56;49.89;99238.50;5045809;28;20055;-70
2023/05/27 00:28:42;;;;;;;8.85;4.00;;;;;;;12.51;49.92;99236.66;5046734;28;20417;-71
2023/05/27 00:31:07;;;;;;;8.48;4.03;;;;;;;12.47;50.05;99247.38;5054313;28;20660;-70
2023/05/27 00:33:33;;;;;;;12.27;4.05;;;;;;;12.42;50.33;99236.47;5033418;28;20025;-71
2023/05/27 00:35:58;;;;;;;9.75;4.10;;;;;;;12.38;50.43;99240.91;5041183;28;20041;-70
2023/05/27 00:38:24;;;;;;;9.65;4.20;;;;;;;12.33;50.41;99243.69;5068995;28;20136;-71
2023/05/27 00:40:52;;;;;;;10.18;3.70;;;;;;;12.28;50.26;99250.03;5067588;28;20079;-70
2023/05/27 00:43:17;;;;;;;8.23;3.80;;;;;;;12.25;50.73;99252.56;5047649;28;20025;-70
2023/05/27 00:45:43;;;;;;;11.63;3.78;;;;;;;12.21;50.45;99247.63;5035915;28;20032;-70
2023/05/27 00:48:08;;;;;;;8.88;3.90;;;;;;;12.19;50.38;99247.09;5031556;28;20175;-70
2023/05/27 00:50:34;;;;;;;8.00;3.72;;;;;;;12.16;50.65;99252.34;5040266;28;20104;-70
2023/05/27 00:53:00;;;;;;;8.50;3.75;;;;;;;12.11;51.03;99249.66;5033699;28;20029;-70
2023/05/27 00:55:26;;;;;;;10.45;3.70;;;;;;;12.06;50.73;99255.97;5039668;28;20109;-69
2023/05/27 00:57:55;;;;;;;8.00;3.63;;;;;;;12.02;50.85;99260.44;5041245;28;20030;-70
2023/05/27 01:00:23;;;;;;;11.93;4.40;;;;;;;11.97;51.00;99258.50;5038085;28;20392;-70
2023/05/27 01:02:50;;;;;;;9.18;3.88;;;;;;;11.95;51.11;99249.72;5046472;28;20508;-70
2023/05/27 01:05:17;;;;;;;10.23;4.00;;;;;;;11.92;51.39;99247.53;5046888;28;20048;-70
2023/05/27 01:07:42;;;;;;;8.30;4.35;;;;;;;11.88;51.46;99254.72;5042373;28;20509;-70
2023/05/27 01:10:19;;;;;;;11.45;4.70;;;;;;;11.83;51.30;99254.75;5045234;28;20025;-70
2023/05/27 01:12:54;;;;;;;11.27;5.05;;;;;;;11.78;51.96;99258.34;5042263;28;20040;-70
2023/05/27 01:15:21;;;;;;;8.93;4.15;;;;;;;11.75;51.37;99254.25;5042196;28;20029;-70
2023/05/27 01:17:47;;;;;;;10.43;4.45;;;;;;;11.72;51.55;99248.50;5055103;28;20040;-70
2023/05/27 01:20:14;;;;;;;8.70;4.22;;;;;;;11.71;51.86;99255.09;5053905;28;20037;-70
2023/05/27 01:22:42;;;;;;;9.13;4.07;;;;;;;11.69;52.03;99252.66;5055170;28;20033;-70
2023/05/27 01:25:09;;;;;;;7.40;3.97;;;;;;;11.67;51.97;99248.53;5049136;28;20095;-70
2023/05/27 01:27:36;;;;;;;11.05;4.22;;;;;;;11.64;52.25;99244.44;5041782;28;20036;-70
2023/05/27 01:30:02;;;;;;;11.60;4.57;;;;;;;11.62;51.82;99252.13;5049068;28;20036;-70
2023/05/27 01:32:36;;;;;;;10.73;4.30;;;;;;;11.58;52.04;99249.16;5045631;28;20033;-70
2023/05/27 01:35:34;;;;;;;10.80;4.55;;;;;;;11.53;52.52;99243.69;5043301;28;20469;-70
2023/05/27 01:38:05;;;;;;;8.57;4.25;;;;;;;11.47;52.51;99250.28;5044100;28;20091;-70
2023/05/27 01:40:33;;;;;;;9.52;4.78;;;;;;;11.42;52.22;99247.56;5037983;28;20050;-70
2023/05/27 01:43:00;;;;;;;10.70;5.00;;;;;;;11.35;52.45;99249.78;5034460;28;20037;-70
2023/05/27 01:45:26;;;;;;;13.75;5.13;;;;;;;11.29;52.47;99247.06;5045714;28;20026;-70
2023/05/27 01:47:51;;;;;;;13.20;5.10;;;;;;;11.23;52.41;99239.97;5034711;28;20489;-70
2023/05/27 01:50:17;;;;;;;10.13;5.07;;;;;;;11.17;53.20;99239.16;5034421;28;20034;-70
2023/05/27 01:52:42;;;;;;;12.68;4.75;;;;;;;11.12;53.34;99247.41;5034370;28;20079;-70
2023/05/27 01:55:08;;;;;;;11.30;4.80;;;;;;;11.06;52.81;99245.78;5038312;28;20033;-70
2023/05/27 01:57:33;;;;;;;12.38;5.55;;;;;;;11.01;52.84;99243.91;5052438;28;20091;-70
2023/05/27 01:59:59;;;;;;;12.55;5.50;;;;;;;10.97;53.42;99239.25;5044302;28;20040;-70
2023/05/27 02:02:24;;;;;;;12.73;6.93;;;;;;;10.92;53.86;99245.56;5037806;28;20052;-70
2023/05/27 02:04:50;;;;;;;14.90;6.88;;;;;;;10.88;53.80;99241.72;5049077;28;20029;-69
2023/05/27 02:07:16;;;;;;;12.68;5.75;;;;;;;10.85;53.78;99242.28;5047606;28;20456;-70
2023/05/27 02:09:43;;;;;;;13.02;5.80;;;;;;;10.81;53.59;99243.94;5034139;28;20471;-70
2023/05/27 02:12:08;;;;;;;9.93;5.07;;;;;;;10.76;54.10;99239.31;5036527;28;20044;-70
2023/05/27 02:14:38;;;;;;;11.25;5.20;;;;;;;10.72;54.51;99239.06;5043176;28;20042;-70
2023/05/27 02:17:04;;;;;;;10.73;4.55;;;;;;;10.69;54.15;99242.34;5049950;28;20389;-70
2023/05/27 02:19:29;;;;;;;11.23;5.28;;;;;;;10.67;54.36;99241.81;5033676;28;20033;-70
2023/05/27 02:21:55;;;;;;;12.73;4.80;;;;;;;10.66;54.35;99245.66;5037252;28;20809;-70
2023/05/27 02:24:20;;;;;;;10.82;4.75;;;;;;;10.66;54.22;99255.78;5040155;28;20029;-71
2023/05/27 02:26:45;;;;;;;12.98;5.25;;;;;;;10.63;54.64;99246.19;5051022;28;20021;-70
2023/05/27 02:29:11;;;;;;;12.90;4.85;;;;;;;10.63;55.05;99254.44;5047947;28;20064;-70
2023/05/27 02:31:36;;;;;;;10.27;4.65;;;;;;;10.62;55.05;99258.28;5033626;28;20494;-70
2023/05/27 02:34:01;;;;;;;12.38;4.82;;;;;;;10.62;55.08;99254.69;5043958;28;20378;-69
2023/05/27 02:36:27;;;;;;;11.48;4.88;;;;;;;10.62;55.44;99260.16;5038702;28;20116;-69
2023/05/27 02:38:53;;;;;;;13.18;4.75;;;;;;;10.61;54.58;99256.63;5033557;28;20417;-70
2023/05/27 02:41:18;;;;;;;13.63;4.78;;;;;;;10.61;54.77;99264.84;5043869;28;20484;-69
2023/05/27 02:43:43;;;;;;;15.10;4.78;;;;;;;10.60;55.25;99260.47;5053412;28;20025;-70
2023/05/27 02:46:09;;;;;;;13.63;4.90;;;;;;;10.60;55.66;99257.72;5058064;28;20032;-69
2023/05/27 02:48:34;;;;;;;12.45;5.25;;;;;;;10.61;54.69;99262.09;5071998;28;20028;-69
2023/05/27 02:50:59;;;;;;;11.73;5.53;;;;;;;10.59;55.29;99264.31;5066143;28;20466;-69
2023/05/27 02:53:25;;;;;;;13.18;5.07;;;;;;;10.56;55.36;99262.94;5058700;28;20029;-69
2023/05/27 02:55:50;;;;;;;15.27;5.55;;;;;;;10.54;55.57;99267.88;5054776;28;20104;-69
2023/05/27 02:58:16;;;;;;;13.75;5.47;;;;;;;10.54;55.37;99265.16;5066073;28;20028;-70
2023/05/27 03:00:41;;;;;;;10.90;5.25;;;;;;;10.55;55.61;99268.69;5073059;28;20127;-69
2023/05/27 03:03:07;;;;;;;14.48;5.20;;;;;;;10.52;55.44;99270.09;5053875;28;20036;-70
2023/05/27 03:05:34;;;;;;;14.00;5.15;;;;;;;10.51;55.54;99273.91;5053015;28;20080;-71
2023/05/27 03:08:00;;;;;;;13.85;4.78;;;;;;;10.51;55.83;99273.91;5052880;28;20025;-68
2023/05/27 03:10:25;;;;;;;11.90;6.00;;;;;;;10.50;55.85;99274.19;5052818;28;20021;-69
2023/05/27 03:12:51;;;;;;;14.23;5.97;;;;;;;10.48;55.74;99279.97;5052821;28;20464;-68
2023/05/27 03:15:16;;;;;;;14.35;5.53;;;;;;;10.48;56.20;99293.66;5052802;28;20032;-69
2023/05/27 03:17:41;;;;;;;10.80;5.18;;;;;;;10.47;56.40;99285.69;5053540;28;20108;-70
2023/05/27 03:20:07;;;;;;;16.42;6.28;;;;;;;10.45;55.83;99294.22;5053251;28;20063;-68
2023/05/27 03:22:37;;;;;;;11.48;5.45;;;;;;;10.40;56.20;99292.28;5052951;28;20033;-68
2023/05/27 03:25:02;;;;;;;12.52;5.55;;;;;;;10.39;56.66;99300.78;5053498;28;20025;-70
2023/05/27 03:27:28;;;;;;;29.02;12.95;;;;;;;10.35;57.38;99297.75;5053446;28;20520;-70
2023/05/27 03:29:53;;;;;;;35.10;16.65;;;;;;;10.32;56.24;99301.03;5053116;28;20086;-69
2023/05/27 03:32:18;;;;;;;17.00;8.23;;;;;;;10.28;56.77;99308.16;5052529;28;20438;-69
2023/05/27 03:34:44;;;;;;;14.45;6.18;;;;;;;10.24;56.91;99304.31;5052557;28;20052;-70
2023/05/27 03:37:09;;;;;;;10.43;5.38;;;;;;;10.22;57.26;99307.31;5052258;28;20371;-70
2023/05/27 03:39:35;;;;;;;14.23;5.82;;;;;;;10.20;57.11;99306.78;5052034;28;20480;-69
2023/05/27 03:42:00;;;;;;;12.90;5.15;;;;;;;10.19;56.89;99307.88;5052401;28;20032;-70
2023/05/27 03:44:28;;;;;;;13.30;6.45;;;;;;;10.21;57.42;99313.09;5052490;28;20465;-70
2023/05/27 03:46:55;;;;;;;11.57;6.13;;;;;;;10.22;57.70;99320.22;5046971;28;20033;-70
2023/05/27 03:49:20;;;;;;;11.18;5.32;;;;;;;10.23;57.99;99322.69;5037571;28;20025;-70
2023/05/27 03:51:47;;;;;;;16.42;5.63;;;;;;;10.21;57.12;99330.34;5039442;28;20039;-70
2023/05/27 03:54:12;;;;;;;10.45;4.65;;;;;;;10.23;57.38;99333.66;5072511;28;20025;-71
2023/05/27 03:56:38;;;;;;;12.55;5.18;;;;;;;10.23;57.84;99336.38;5052600;28;20482;-70
2023/05/27 03:59:03;;;;;;;13.00;5.10;;;;;;;10.24;57.90;99342.72;5043640;28;20033;-70
2023/05/27 04:01:29;;;;;;;13.02;5.93;;;;;;;10.23;57.32;99338.31;5036084;28;20032;-70
2023/05/27 04:03:54;;;;;;;13.88;5.60;;;;;;;10.20;58.10;99336.13;5052073;28;20357;-69
2023/05/27 04:06:19;;;;;;;14.60;4.88;;;;;;;10.18;58.20;99339.16;5051727;28;20067;-70
2023/05/27 04:08:45;;;;;;;12.52;5.05;;;;;;;10.19;58.47;99334.47;5052468;28;20497;-70
2023/05/27 04:11:14;;;;;;;14.20;4.97;;;;;;;10.17;58.25;99340.25;5049376;28;20147;-70
2023/05/27 04:13:41;;;;;;;11.60;5.30;;;;;;;10.17;58.81;99340.25;5039131;28;20052;-70
2023/05/27 04:16:07;;;;;;;11.45;4.93;;;;;;;10.16;58.60;99335.00;5051260;28;20043;-71
2023/05/27 04:18:33;;;;;;;12.45;5.38;;;;;;;10.16;58.91;99341.34;5052255;28;20120;-71
2023/05/27 04:20:59;;;;;;;10.55;5.20;;;;;;;10.18;58.33;99341.06;5051016;28;20025;-70
2023/05/27 04:23:25;;;;;;;12.85;4.95;;;;;;;10.22;58.96;99340.22;5032071;28;20061;-71
2023/05/27 04:25:51;;;;;;;10.80;4.82;;;;;;;10.21;57.99;99349.53;5032015;28;20064;-70
2023/05/27 04:28:17;;;;;;;12.20;5.25;;;;;;;10.23;58.41;99341.06;5042819;28;20025;-71
2023/05/27 04:30:43;;;;;;;12.50;4.80;;;;;;;10.28;58.85;99346.56;5042983;28;20071;-70
2023/05/27 04:33:09;;;;;;;11.85;4.85;;;;;;;10.29;58.91;99345.47;5034202;28;20033;-70
2023/05/27 04:35:34;;;;;;;12.15;5.03;;;;;;;10.30;59.07;99352.59;5049753;28;20036;-70
2023/05/27 04:38:01;;;;;;;13.07;4.95;;;;;;;10.31;58.83;99354.25;5054168;28;20120;-69
2023/05/27 04:40:26;;;;;;;13.55;5.32;;;;;;;10.34;59.39;99341.88;5053732;28;20105;-70
2023/05/27 04:42:52;;;;;;;11.77;4.85;;;;;;;10.32;59.44;99344.91;5041970;28;20041;-70
2023/05/27 04:45:18;;;;;;;14.43;5.13;;;;;;;10.37;58.70;99342.19;5047664;28;20037;-71
2023/05/27 04:47:44;;;;;;;12.10;5.18;;;;;;;10.40;59.26;99347.13;5053806;28;20482;-70
2023/05/27 04:50:13;;;;;;;14.73;5.15;;;;;;;10.47;59.38;99343.28;5046595;28;20041;-70
2023/05/27 04:52:38;;;;;;;14.10;5.43;;;;;;;10.52;59.49;99357.00;5036657;28;20036;-70
2023/05/27 04:55:05;;;;;;;12.90;5.38;;;;;;;10.57;59.65;99355.13;5053588;28;20029;-71
2023/05/27 04:57:30;;;;;;;14.02;5.60;;;;;;;10.63;59.54;99355.09;5054850;28;20469;-70
2023/05/27 05:00:17;;;;;;;11.20;5.10;;;;;;;10.68;59.96;99355.94;5041852;28;20040;-70
2023/05/27 05:02:43;;;;;;;13.38;5.35;;;;;;;10.77;59.72;99347.16;5039002;28;20171;-70
2023/05/27 05:05:09;;;;;;;13.75;5.40;;;;;;;10.85;60.36;99357.53;5053347;28;20108;-70
2023/05/27 05:07:37;;;;;;;12.80;5.25;;;;;;;10.91;60.27;99356.44;5055103;28;20032;-71
2023/05/27 05:10:04;;;;;;;16.85;5.43;;;;;;;10.98;59.63;99353.44;5046063;28;20068;-70
2023/05/27 05:12:29;;;;;;;19.60;5.53;;;;;;;11.05;59.96;99353.16;5049087;28;20043;-71
2023/05/27 05:14:55;;;;;;;13.57;5.28;;;;;;;11.11;59.85;99360.28;5037936;28;20104;-70
2023/05/27 05:17:23;;;;;;;13.35;5.03;;;;;;;11.20;59.74;99352.28;5038581;28;20025;-71
2023/05/27 05:19:49;;;;;;;12.55;4.57;;;;;;;11.26;59.57;99351.16;5035271;28;20026;-70
2023/05/27 05:22:18;;;;;;;13.73;5.30;;;;;;;11.31;60.19;99349.22;5034915;28;20033;-70
2023/05/27 05:24:43;;;;;;;14.25;5.07;;;;;;;11.37;59.88;99343.72;5048436;28;20039;-71
2023/05/27 05:27:09;;;;;;;13.45;5.30;;;;;;;11.45;59.84;99351.38;5054710;28;20111;-70
2023/05/27 05:29:34;;;;;;;13.48;4.90;;;;;;;11.51;60.07;99352.19;5052717;28;20060;-69
2023/05/27 05:32:00;;;;;;;14.07;5.47;;;;;;;11.56;59.74;99353.00;5049373;28;20032;-70
2023/05/27 05:34:25;;;;;;;12.35;5.07;;;;;;;11.63;59.61;99355.44;5048048;28;20037;-70
2023/05/27 05:36:51;;;;;;;11.77;4.47;;;;;;;11.69;59.57;99356.22;5054291;28;20064;-69
2023/05/27 05:39:16;;;;;;;14.35;4.72;;;;;;;11.73;60.26;99365.56;5049439;28;20033;-70
2023/05/27 05:41:42;;;;;;;14.50;4.45;;;;;;;11.78;60.04;99360.03;5043469;28;20041;-70
2023/05/27 05:44:07;;;;;;;14.05;4.55;;;;;;;11.82;59.84;99357.56;5043845;28;20026;-69
2023/05/27 05:46:34;;;;;;;14.50;5.40;;;;;;;11.86;60.16;99359.47;5034600;28;20045;-70
2023/05/27 05:48:59;;;;;;;13.80;4.72;;;;;;;11.91;59.60;99362.19;5043258;28;20079;-70
2023/05/27 05:51:25;;;;;;;13.77;4.03;;;;;;;11.96;59.50;99361.31;5048986;28;20098;-69
2023/05/27 05:53:50;;;;;;;13.55;4.80;;;;;;;12.00;59.76;99372.63;5049907;28;20029;-69
2023/05/27 05:56:16;;;;;;;14.32;5.30;;;;;;;12.05;59.59;99373.41;5039004;28;20444;-69
2023/05/27 05:58:41;;;;;;;17.27;4.93;;;;;;;12.09;59.43;99370.09;5034238;28;20117;-69
2023/05/27 06:01:06;;;;;;;13.32;3.97;;;;;;;12.14;59.54;99372.81;5042025;28;20033;-69
2023/05/27 06:03:32;;;;;;;12.77;3.92;;;;;;;12.20;59.70;99361.50;5044492;28;20025;-69
2023/05/27 06:05:57;;;;;;;12.98;4.55;;;;;;;12.25;59.36;99365.31;5050174;28;20044;-69
2023/05/27 06:08:22;;;;;;;12.73;4.18;;;;;;;12.30;59.14;99370.78;5048864;28;20025;-68
2023/05/27 06:10:48;;;;;;;11.88;4.05;;;;;;;12.35;59.28;99371.56;5048226;28;20029;-70
2023/05/27 06:13:13;;;;;;;14.45;4.45;;;;;;;12.42;58.99;99371.25;5051241;28;20095;-68
2023/05/27 06:15:39;;;;;;;15.10;5.07;;;;;;;12.50;59.55;99370.63;5051119;28;20083;-68
2023/05/27 06:18:05;;;;;;;17.15;5.10;;;;;;;12.58;59.20;99357.38;5037655;28;20035;-68
2023/05/27 06:20:30;;;;;;;13.55;4.80;;;;;;;12.62;59.42;99373.03;5052351;28;20104;-68
2023/05/27 06:22:55;;;;;;;14.95;4.93;;;;;;;12.67;59.33;99366.66;5048480;28;20035;-68
2023/05/27 06:25:21;;;;;;;12.63;4.75;;;;;;;12.69;59.17;99364.44;5044090;28;20025;-69
2023/05/27 06:27:47;;;;;;;13.60;4.75;;;;;;;12.74;59.04;99364.41;5041258;28;20544;-70
2023/05/27 06:30:12;;;;;;;12.68;5.00;;;;;;;12.76;58.51;99370.44;5046133;28;20033;-70
2023/05/27 06:32:37;;;;;;;12.85;4.10;;;;;;;12.82;58.73;99376.72;5051109;28;20036;-69
2023/05/27 06:35:03;;;;;;;15.52;4.95;;;;;;;12.85;58.75;99367.03;5041952;28;20044;-70
2023/05/27 06:37:29;;;;;;;12.27;4.78;;;;;;;12.88;58.51;99370.06;5053610;28;20036;-70
2023/05/27 06:39:54;;;;;;;13.68;4.28;;;;;;;12.91;58.67;99354.88;5049184;28;20052;-71
2023/05/27 06:42:19;;;;;;;13.50;4.90;;;;;;;12.94;58.46;99363.41;5053430;28;20115;-69
2023/05/27 06:44:45;;;;;;;14.40;5.65;;;;;;;12.96;58.62;99365.84;5036127;28;20045;-69
2023/05/27 06:47:10;;;;;;;11.25;4.40;;;;;;;13.00;58.56;99368.84;5032971;28;20060;-69
2023/05/27 06:49:36;;;;;;;10.38;4.47;;;;;;;13.03;58.14;99368.28;5045669;28;20518;-70
2023/05/27 06:52:03;;;;;;;11.25;5.03;;;;;;;13.05;58.55;99364.13;5053792;28;20662;-69
2023/05/27 06:54:28;;;;;;;10.52;4.57;;;;;;;13.11;58.29;99364.88;5040194;28;20025;-70
2023/05/27 06:56:53;;;;;;;12.88;4.15;;;;;;;13.16;58.37;99372.28;5062136;28;20158;-71
2023/05/27 06:59:19;;;;;;;11.82;4.50;;;;;;;13.20;58.33;99371.41;5067845;28;20071;-70
2023/05/27 07:01:44;;;;;;;12.30;3.95;;;;;;;13.24;58.30;99366.94;5056670;28;20032;-70
2023/05/27 07:04:09;;;;;;;12.43;4.28;;;;;;;13.30;58.02;99370.47;5033034;28;20087;-70
2023/05/27 07:06:36;;;;;;;11.15;4.43;;;;;;;13.34;58.05;99366.00;5048957;28;20476;-70
2023/05/27 07:09:03;;;;;;;12.57;4.07;;;;;;;13.37;57.73;99368.19;5051937;28;20036;-70
2023/05/27 07:11:29;;;;;;;11.90;4.45;;;;;;;13.43;57.63;99369.00;5038556;28;20025;-70
2023/05/27 07:13:54;;;;;;;14.55;4.25;;;;;;;13.51;57.63;99362.00;5052739;28;20033;-70
2023/05/27 07:16:20;;;;;;;12.50;4.15;;;;;;;13.57;57.60;99369.09;5052155;28;20424;-70
2023/05/27 07:18:45;;;;;;;10.55;4.00;;;;;;;13.64;57.42;99365.97;5049921;28;20017;-70
2023/05/27 07:21:11;;;;;;;12.27;3.95;;;;;;;13.68;57.31;99362.34;5045023;28;20120;-70
2023/05/27 07:23:36;;;;;;;13.55;4.43;;;;;;;13.75;57.23;99367.50;5032813;28;20037;-70
2023/05/27 07:26:01;;;;;;;14.15;4.55;;;;;;;13.81;57.13;99368.25;5046905;28;20485;-70
2023/05/27 07:28:27;;;;;;;11.88;4.15;;;;;;;13.88;56.86;99363.19;5036575;28;20041;-69
2023/05/27 07:30:52;;;;;;;13.05;4.22;;;;;;;13.94;56.98;99367.53;5034134;28;20033;-70
2023/05/27 07:33:18;;;;;;;14.27;4.55;;;;;;;14.01;56.80;99366.34;5036021;28;20041;-69
2023/05/27 07:35:43;;;;;;;11.80;4.35;;;;;;;14.04;56.63;99363.81;5042956;28;20071;-69
2023/05/27 07:38:09;;;;;;;14.95;4.25;;;;;;;14.10;56.72;99362.63;5069132;28;20453;-69
2023/05/27 07:40:35;;;;;;;13.93;4.18;;;;;;;14.17;56.45;99373.28;5068818;28;20444;-69
2023/05/27 07:43:01;;;;;;;13.25;3.70;;;;;;;14.22;56.60;99364.94;5054787;28;20492;-69
2023/05/27 07:45:26;;;;;;;11.57;4.10;;;;;;;14.28;56.38;99369.25;5053283;28;20033;-69
2023/05/27 07:47:52;;;;;;;18.58;4.75;;;;;;;14.34;56.13;99370.00;5053530;28;20071;-69
2023/05/27 07:50:17;;;;;;;13.63;4.32;;;;;;;14.39;56.27;99374.63;5072713;28;20461;-68
2023/05/27 07:52:43;;;;;;;11.80;4.10;;;;;;;14.43;55.86;99370.97;5069020;28;20044;-69
2023/05/27 07:55:08;;;;;;;10.32;3.13;;;;;;;14.51;55.86;99363.13;5053178;28;20036;-68
2023/05/27 07:57:34;;;;;;;11.48;3.72;;;;;;;14.56;56.02;99368.56;5053226;28;20113;-68
2023/05/27 07:59:59;;;;;;;12.60;4.20;;;;;;;14.60;55.38;99369.63;5053058;28;20033;-68
2023/05/27 08:02:25;;;;;;;12.38;4.10;;;;;;;14.64;55.82;99364.28;5049849;28;20058;-68
2023/05/27 08:04:51;;;;;;;13.90;4.20;;;;;;;14.70;55.50;99361.19;5056476;28;20028;-67
2023/05/27 08:07:17;;;;;;;10.70;3.70;;;;;;;14.78;55.70;99364.38;5048778;28;20032;-68
2023/05/27 08:09:42;;;;;;;9.57;3.47;;;;;;;14.85;55.53;99359.28;5034921;28;20112;-69
2023/05/27 08:12:07;;;;;;;11.55;3.47;;;;;;;14.94;55.85;99359.41;5042411;28;20036;-68
2023/05/27 08:14:34;;;;;;;12.18;3.67;;;;;;;15.01;55.67;99357.06;5060172;28;20469;-69
2023/05/27 08:17:00;;;;;;;11.55;3.70;;;;;;;15.09;55.55;99355.53;5055465;28;20025;-68
2023/05/27 08:19:25;;;;;;;13.02;3.70;;;;;;;15.20;55.30;99350.66;5051373;28;20035;-69
2023/05/27 08:21:50;;;;;;;10.35;3.25;;;;;;;15.30;55.91;99355.97;5051895;28;20032;-68
2023/05/27 08:24:16;;;;;;;10.98;3.65;;;;;;;15.36;55.43;99345.66;5051599;28;20422;-68
2023/05/27 08:26:42;;;;;;;11.95;3.60;;;;;;;15.40;54.64;99349.44;5052591;28;20024;-68
2023/05/27 08:29:07;;;;;;;9.18;3.05;;;;;;;15.40;54.80;99347.50;5052058;28;20028;-68
2023/05/27 08:31:33;;;;;;;11.18;3.25;;;;;;;15.44;54.47;99342.19;5048437;28;20044;-69
2023/05/27 08:33:58;;;;;;;11.18;3.78;;;;;;;15.51;54.17;99344.53;5040028;28;20052;-69
2023/05/27 08:36:23;;;;;;;9.90;3.38;;;;;;;15.54;54.11;99341.97;5049819;28;20036;-70
2023/05/27 08:38:49;;;;;;;9.80;2.97;;;;;;;15.59;54.19;99344.63;5052666;28;20028;-69
2023/05/27 08:41:15;;;;;;;10.02;3.78;;;;;;;15.65;53.80;99337.06;5047844;28;20056;-70
2023/05/27 08:43:42;;;;;;;13.30;3.55;;;;;;;15.69;54.00;99345.53;5070812;28;20021;-69
2023/05/27 08:46:08;;;;;;;9.65;3.13;;;;;;;15.73;53.51;99333.53;5066806;28;20033;-69
2023/05/27 08:48:33;;;;;;;10.73;3.47;;;;;;;15.82;53.88;99330.06;5057385;28;20028;-71
2023/05/27 08:51:00;;;;;;;13.52;3.53;;;;;;;15.90;53.63;99334.88;5038807;28;20159;-71
2023/05/27 08:53:26;;;;;;;13.63;4.10;;;;;;;15.92;52.99;99325.13;5050077;28;20610;-70
2023/05/27 08:55:56;;;;;;;10.93;3.47;;;;;;;15.97;53.82;99335.28;5051267;28;20017;-71
2023/05/27 08:58:22;;;;;;;;;;;;;;;16.07;53.66;99325.94;5052843;28;20025;-71
2023/05/27 09:00:47;;;;;;;13.40;3.33;;;;;;;16.12;53.42;99328.59;5052484;28;19958;-71
2023/05/27 09:03:13;;;;;;;10.05;3.28;;;;;;;16.20;53.36;99338.09;5052647;28;20029;-71
2023/05/27 09:05:38;;;;;;;10.65;3.30;;;;;;;16.25;53.34;99326.09;5052596;28;20057;-70
2023/05/27 09:08:04;;;;;;;9.43;3.00;;;;;;;16.32;53.34;99321.75;5052533;28;20025;-71
2023/05/27 09:10:40;;;;;;;10.30;3.30;;;;;;;16.35;52.51;99320.28;5071439;28;20025;-71
2023/05/27 09:13:06;;;;;;;13.70;3.10;;;;;;;16.39;52.69;99317.75;5068274;28;20029;-71
2023/05/27 09:15:33;;;;;;;9.50;3.08;;;;;;;16.43;52.63;99325.09;5057779;28;20041;-70
2023/05/27 09:17:59;;;;;;;11.05;3.13;;;;;;;16.45;51.80;99317.28;5056065;28;20134;-71
2023/05/27 09:20:26;;;;;;;9.57;3.08;;;;;;;16.47;51.66;99315.03;5054798;28;20489;-71
2023/05/27 09:23:00;;;;;;;10.73;3.17;;;;;;;16.50;51.64;99317.16;5055888;28;20025;-71
2023/05/27 09:25:27;;;;;;;12.13;3.55;;;;;;;16.55;51.43;99307.91;5059554;28;20029;-71
2023/05/27 09:27:53;;;;;;;9.75;3.00;;;;;;;16.58;51.61;99300.94;5056104;28;20060;-72
2023/05/27 09:30:22;;;;;;;13.30;3.17;;;;;;;16.66;51.70;99302.94;5054376;28;20083;-73
2023/05/27 09:32:49;;;;;;;13.88;2.85;;;;;;;16.76;51.75;99296.31;5055195;28;20400;-73
2023/05/27 09:35:16;;;;;;;8.95;2.88;;;;;;;16.88;51.89;99293.78;5051463;28;20033;-72
2023/05/27 09:37:44;;;;;;;10.60;2.88;;;;;;;16.95;51.52;99290.53;5049658;28;20033;-72
2023/05/27 09:40:15;;;;;;;10.63;4.82;;;;;;;16.97;50.35;99291.06;5054736;28;20123;-70
2023/05/27 09:42:41;;;;;;;7.72;3.42;;;;;;;16.98;50.08;99286.34;5053963;28;20032;-72
2023/05/27 09:45:12;;;;;;;11.85;3.22;;;;;;;16.99;50.16;99287.97;5055409;28;20021;-72
2023/05/27 09:47:46;;;;;;;10.77;3.40;;;;;;;17.02;50.18;99292.88;5055406;28;20077;-71
2023/05/27 09:50:15;;;;;;;9.93;2.70;;;;;;;17.05;49.52;99297.78;5055272;28;20029;-71
2023/05/27 09:52:41;;;;;;;10.88;3.75;;;;;;;17.08;49.72;99299.91;5054729;28;20029;-71
2023/05/27 09:55:12;;;;;;;8.80;2.88;;;;;;;17.13;49.59;99293.41;5058269;28;20539;-74
2023/05/27 09:57:38;;;;;;;14.85;8.02;;;;;;;17.14;48.68;99300.59;5047487;28;20074;-71
2023/05/27 10:00:15;;;;;;;9.38;3.35;;;;;;;17.13;48.70;99288.69;5050825;28;20025;-71
2023/05/27 10:02:42;;;;;;;10.63;3.35;;;;;;;17.17;49.38;99300.78;5053115;28;20158;-70
2023/05/27 10:05:11;;;;;;;10.60;3.50;;;;;;;17.29;49.66;99294.63;5053186;28;20032;-71
2023/05/27 10:07:38;;;;;;;9.27;3.30;;;;;;;17.40;49.86;99295.16;5051695;28;20507;-71
2023/05/27 10:10:09;;;;;;;10.15;3.20;;;;;;;17.48;49.65;99297.13;5049088;28;20072;-71
2023/05/27 10:12:46;;;;;;;10.60;3.05;;;;;;;17.52;49.60;99295.34;5051587;28;20033;-71
2023/05/27 10:15:31;;;;;;;7.38;2.47;;;;;;;17.58;49.27;99293.22;5053481;28;20025;-72
2023/05/27 10:18:13;;;;;;;10.13;3.05;;;;;;;17.64;49.10;99296.69;5060426;28;20350;-73
2023/05/27 10:20:41;;;;;;;10.25;2.58;;;;;;;17.72;49.22;99290.34;5053643;28;20075;-71
2023/05/27 10:23:13;;;;;;;9.52;3.03;;;;;;;17.82;49.38;99292.78;5052216;28;20116;-70
2023/05/27 10:25:40;;;;;;;7.68;2.70;;;;;;;17.91;48.84;99294.75;5052172;28;20052;-71
2023/05/27 10:28:07;;;;;;;10.43;2.97;;;;;;;17.95;49.02;99292.97;5055699;28;20029;-71
2023/05/27 10:30:45;;;;;;;7.50;2.78;;;;;;;18.01;48.75;99280.59;5051252;28;20017;-72
2023/05/27 10:33:12;;;;;;;6.97;2.80;;;;;;;18.06;48.59;99279.63;5051622;28;20503;-70
2023/05/27 10:35:42;;;;;;;7.75;2.72;;;;;;;18.10;47.76;99280.59;5051691;28;20306;-71
2023/05/27 10:38:15;;;;;;;8.98;2.97;;;;;;;18.12;48.09;99270.81;5051430;28;20417;-70
2023/05/27 10:40:41;;;;;;;8.80;3.13;;;;;;;18.14;46.20;99276.84;5051486;28;20048;-70
2023/05/27 10:43:15;;;;;;;9.60;3.20;;;;;;;18.12;47.44;99273.59;5051409;28;20021;-72
2023/05/27 10:45:40;;;;;;;7.60;2.72;;;;;;;18.13;46.96;99269.69;5051672;28;20032;-71
2023/05/27 10:48:18;;;;;;;7.13;2.75;;;;;;;18.17;47.19;99269.81;5051559;28;20036;-71
2023/05/27 10:50:51;;;;;;;9.57;2.88;;;;;;;18.25;47.43;99270.97;5059651;28;20024;-70
2023/05/27 10:53:19;;;;;;;7.82;2.78;;;;;;;18.32;47.25;99268.50;5060653;28;20033;-70
2023/05/27 10:55:46;;;;;;;8.93;2.92;;;;;;;18.39;47.06;99274.38;5051311;28;20491;-70
2023/05/27 10:58:12;;;;;;;8.00;2.65;;;;;;;18.40;46.55;99258.53;5050853;28;20072;-70
2023/05/27 11:00:38;;;;;;;5.88;2.13;;;;;;;18.40;45.51;99256.56;5053924;28;20444;-71
2023/05/27 11:03:04;;;;;;;14.43;8.98;;;;;;;18.41;46.45;99252.66;5052413;28;20389;-70
2023/05/27 11:05:32;;;;;;;7.20;3.03;;;;;;;18.46;46.50;99251.66;5052723;28;20025;-70
2023/05/27 11:07:59;;;;;;;9.82;2.78;;;;;;;18.52;46.36;99258.66;5056801;28;20035;-70
2023/05/27 11:10:26;;;;;;;8.65;2.38;;;;;;;18.60;46.38;99252.28;5067878;28;20037;-71
2023/05/27 11:12:52;;;;;;;9.57;2.80;;;;;;;18.65;46.13;99251.28;5047305;28;20512;-70
2023/05/27 11:15:18;;;;;;;7.32;2.25;;;;;;;18.68;46.13;99250.63;5039297;28;20033;-71
2023/05/27 11:17:43;;;;;;;8.68;2.50;;;;;;;18.75;45.88;99248.16;5050704;28;20029;-71
2023/05/27 11:20:10;;;;;;;8.50;3.45;;;;;;;18.81;44.99;99254.34;5052591;28;20036;-71
2023/05/27 11:22:36;;;;;;;7.32;2.85;;;;;;;18.82;45.26;99247.63;5051107;28;20604;-72
2023/05/27 11:25:03;;;;;;;5.85;2.65;;;;;;;18.89;44.67;99261.84;5050150;28;20017;-72